createdAt,value
2019-03-24T00:00:03.657Z,75.11
2019-03-24T00:02:34.778Z,75.43
2019-03-24T00:05:06.230Z,76.74
2019-03-24T00:07:37.213Z,77.91
2019-03-24T00:10:09.247Z,77.07
2019-03-24T00:12:40.337Z,76.43
2019-03-24T00:15:11.618Z,77.29
2019-03-24T00:17:42.918Z,76.86
2019-03-24T00:20:14.728Z,76.64
2019-03-24T00:22:45.772Z,76.85
2019-03-24T00:25:16.782Z,76.27
2019-03-24T00:27:47.809Z,76.30
2019-03-24T00:30:18.994Z,76.34
2019-03-24T00:32:49.988Z,76.41
2019-03-24T00:35:21.094Z,77.02
2019-03-24T00:37:52.076Z,77.02
2019-03-24T00:40:23.058Z,76.91
2019-03-24T00:42:54.175Z,77.04
2019-03-24T00:45:25.363Z,77.24
2019-03-24T00:47:56.853Z,77.77
2019-03-24T00:50:28.016Z,77.86
2019-03-24T00:52:59.986Z,77.51
2019-03-24T00:55:30.967Z,77.50
2019-03-24T00:58:02.358Z,77.83
2019-03-24T01:00:47.646Z,78.31
2019-03-24T01:03:19.496Z,78.26
2019-03-24T01:05:50.506Z,78.25
2019-03-24T01:08:21.582Z,78.44
2019-03-24T01:10:53.484Z,79.03
2019-03-24T01:13:24.557Z,79.04
2019-03-24T01:15:55.539Z,79.10
2019-03-24T01:18:26.644Z,79.08
2019-03-24T01:20:57.789Z,79.25
2019-03-24T01:23:29.980Z,79.50
2019-03-24T01:26:01.037Z,79.51
2019-03-24T01:28:33.102Z,79.88
2019-03-24T01:31:04.113Z,79.58
2019-03-24T01:33:35.239Z,79.49
2019-03-24T01:36:06.229Z,79.56
2019-03-24T01:38:38.080Z,80.01
2019-03-24T01:41:09.104Z,80.02
2019-03-24T01:43:40.129Z,79.69
2019-03-24T01:46:11.206Z,79.68
2019-03-24T01:48:42.529Z,79.69
2019-03-24T01:51:13.529Z,79.70
2019-03-24T01:53:46.373Z,79.93
2019-03-24T01:56:17.753Z,80.25
2019-03-24T01:58:49.698Z,80.32
2019-03-24T02:01:20.732Z,80.13
2019-03-24T02:03:51.785Z,80.42
2019-03-24T02:06:24.012Z,80.46
2019-03-24T02:08:55.143Z,81.01
2019-03-24T02:11:26.125Z,81.25
2019-03-24T02:13:57.271Z,81.38
2019-03-24T02:16:28.388Z,81.56
2019-03-24T02:18:59.804Z,81.21
2019-03-24T02:21:31.831Z,80.95
2019-03-24T02:24:03.233Z,80.87
2019-03-24T02:26:34.205Z,81.72
2019-03-24T02:29:05.286Z,81.42
2019-03-24T02:31:36.308Z,81.43
2019-03-24T02:34:07.607Z,81.37
2019-03-24T02:36:40.083Z,81.50
2019-03-24T02:39:11.761Z,81.27
2019-03-24T02:41:43.062Z,81.71
2019-03-24T02:44:14.124Z,81.42
2019-03-24T02:46:45.099Z,81.94
2019-03-24T02:49:16.705Z,82.04
2019-03-24T02:51:48.084Z,81.78
2019-03-24T02:54:19.099Z,81.59
2019-03-24T02:56:50.080Z,81.90
2019-03-24T02:59:21.102Z,81.19
2019-03-24T03:01:52.477Z,81.03
2019-03-24T03:04:24.011Z,81.50
2019-03-24T03:06:55.448Z,82.06
2019-03-24T03:09:26.451Z,82.15
2019-03-24T03:11:57.413Z,83.27
2019-03-24T03:14:28.453Z,83.41
2019-03-24T03:16:59.519Z,83.22
2019-03-24T03:19:30.495Z,83.23
2019-03-24T03:22:01.504Z,83.68
2019-03-24T03:24:32.911Z,84.10
2019-03-24T03:27:04.381Z,83.65
2019-03-24T03:29:35.452Z,83.73
2019-03-24T03:32:06.742Z,83.67
2019-03-24T03:34:37.792Z,84.86
2019-03-24T03:37:08.789Z,83.83
2019-03-24T03:39:39.763Z,84.74
2019-03-24T03:42:10.921Z,83.80
2019-03-24T03:44:41.908Z,83.42
2019-03-24T03:47:13.587Z,83.38
2019-03-24T03:49:44.599Z,83.46
2019-03-24T03:52:15.638Z,83.86
2019-03-24T03:54:46.993Z,84.23
2019-03-24T03:57:18.063Z,84.26
2019-03-24T03:59:49.526Z,84.20
2019-03-24T04:02:21.462Z,83.59
2019-03-24T04:04:52.438Z,83.71
2019-03-24T04:07:23.428Z,82.97
2019-03-24T04:09:55.249Z,83.26
2019-03-24T04:12:27.099Z,82.75
2019-03-24T04:14:58.362Z,82.58
2019-03-24T04:17:29.424Z,83.23
2019-03-24T04:20:00.553Z,82.84
2019-03-24T04:22:31.936Z,82.60
2019-03-24T04:25:03.073Z,82.91
2019-03-24T04:27:34.092Z,82.97
2019-03-24T04:30:05.794Z,83.54
2019-03-24T04:32:36.758Z,83.25
2019-03-24T04:35:08.323Z,83.57
2019-03-24T04:37:40.110Z,82.82
2019-03-24T04:40:11.216Z,83.20
2019-03-24T04:42:42.526Z,83.62
2019-03-24T04:45:13.805Z,83.71
2019-03-24T04:47:45.206Z,83.31
2019-03-24T04:50:16.573Z,83.69
2019-03-24T04:52:47.954Z,83.87
2019-03-24T04:55:18.962Z,83.53
2019-03-24T04:57:50.305Z,84.17
2019-03-24T05:00:29.270Z,84.16
2019-03-24T05:03:00.234Z,84.23
2019-03-24T05:05:31.215Z,84.57
2019-03-24T05:08:02.619Z,84.51
2019-03-24T05:10:33.578Z,85.22
2019-03-24T05:13:04.932Z,85.32
2019-03-24T05:15:35.931Z,85.50
2019-03-24T05:18:07.251Z,86.36
2019-03-24T05:20:38.647Z,86.29
2019-03-24T05:23:09.949Z,86.04
2019-03-24T05:25:40.971Z,86.52
2019-03-24T05:28:11.938Z,86.92
2019-03-24T05:30:43.328Z,86.67
2019-03-24T05:33:14.704Z,86.56
2019-03-24T05:35:45.680Z,86.59
2019-03-24T05:38:16.683Z,87.44
2019-03-24T05:40:48.073Z,86.93
2019-03-24T05:43:19.082Z,87.47
2019-03-24T05:45:50.060Z,87.88
2019-03-24T05:48:21.423Z,88.07
2019-03-24T05:50:52.446Z,87.87
2019-03-24T05:53:23.830Z,88.15
2019-03-24T05:55:56.194Z,88.06
2019-03-24T05:58:27.581Z,87.74
2019-03-24T06:00:58.552Z,88.25
2019-03-24T06:03:29.970Z,88.28
2019-03-24T06:06:01.044Z,87.96
2019-03-24T06:08:32.422Z,87.40
2019-03-24T06:11:03.817Z,86.19
2019-03-24T06:13:34.791Z,87.97
2019-03-24T06:16:06.167Z,88.59
2019-03-24T06:18:37.206Z,89.31
2019-03-24T06:21:08.562Z,88.83
2019-03-24T06:23:39.538Z,88.68
2019-03-24T06:26:10.538Z,88.86
2019-03-24T06:28:41.583Z,88.57
2019-03-24T06:31:12.591Z,89.39
2019-03-24T06:33:43.862Z,89.50
2019-03-24T06:36:15.166Z,88.91
2019-03-24T06:38:46.556Z,88.27
2019-03-24T06:41:18.884Z,88.30
2019-03-24T06:43:50.194Z,88.19
2019-03-24T06:46:21.235Z,88.33
2019-03-24T06:48:52.585Z,88.03
2019-03-24T06:51:26.014Z,87.72
2019-03-24T06:53:57.454Z,88.34
2019-03-24T06:56:28.434Z,88.07
2019-03-24T06:58:59.414Z,87.83
2019-03-24T07:01:30.422Z,87.73
2019-03-24T07:04:02.139Z,87.83
2019-03-24T07:06:34.825Z,88.08
2019-03-24T07:09:07.400Z,87.52
2019-03-24T07:11:38.416Z,87.58
2019-03-24T07:14:09.767Z,87.46
2019-03-24T07:16:41.623Z,87.32
2019-03-24T07:19:13.057Z,86.70
2019-03-24T07:21:44.040Z,86.94
2019-03-24T07:24:15.058Z,87.00
2019-03-24T07:26:46.115Z,87.26
2019-03-24T07:29:17.385Z,86.90
2019-03-24T07:31:48.739Z,87.11
2019-03-24T07:34:19.721Z,86.77
2019-03-24T07:36:50.695Z,87.13
2019-03-24T07:39:21.743Z,86.39
2019-03-24T07:41:52.672Z,85.78
2019-03-24T07:44:23.698Z,85.83
2019-03-24T07:46:54.972Z,86.40
2019-03-24T07:49:26.005Z,85.95
2019-03-24T07:51:56.990Z,85.39
2019-03-24T07:54:27.967Z,85.96
2019-03-24T07:56:58.970Z,85.96
2019-03-24T07:59:29.951Z,85.16
2019-03-24T08:02:00.968Z,86.53
2019-03-24T08:04:31.964Z,86.41
2019-03-24T08:07:03.250Z,86.88
2019-03-24T08:09:37.187Z,87.63
2019-03-24T08:12:08.038Z,86.52
2019-03-24T08:14:39.054Z,86.98
2019-03-24T08:17:10.133Z,87.54
2019-03-24T08:19:41.214Z,86.95
2019-03-24T08:22:12.482Z,86.35
2019-03-24T08:24:43.461Z,85.64
2019-03-24T08:27:14.877Z,85.12
2019-03-24T08:29:45.857Z,84.13
2019-03-24T08:32:17.314Z,84.96
2019-03-24T08:34:49.451Z,85.21
2019-03-24T08:37:20.459Z,84.66
2019-03-24T08:39:51.438Z,83.80
2019-03-24T08:42:22.458Z,84.36
2019-03-24T08:44:53.431Z,84.32
2019-03-24T08:47:24.453Z,84.46
2019-03-24T08:49:55.855Z,83.49
2019-03-24T08:52:27.182Z,82.80
2019-03-24T08:54:59.820Z,82.39
2019-03-24T08:57:32.464Z,82.46
2019-03-24T09:00:04.172Z,82.53
2019-03-24T09:02:35.267Z,82.30
2019-03-24T09:05:06.323Z,81.63
2019-03-24T09:07:37.686Z,81.78
2019-03-24T09:10:08.987Z,82.07
2019-03-24T09:12:40.171Z,81.23
2019-03-24T09:15:11.223Z,80.95
2019-03-24T09:17:43.243Z,81.35
2019-03-24T09:20:15.181Z,81.50
2019-03-24T09:22:47.129Z,81.51
2019-03-24T09:25:18.280Z,81.88
2019-03-24T09:27:50.143Z,82.30
2019-03-24T09:30:31.827Z,82.44
2019-03-24T09:33:02.939Z,82.08
2019-03-24T09:35:33.933Z,81.89
2019-03-24T09:38:05.594Z,81.98
2019-03-24T09:40:37.226Z,81.64
2019-03-24T09:43:08.326Z,80.93
2019-03-24T09:45:39.372Z,81.91
2019-03-24T09:48:10.370Z,81.91
2019-03-24T09:50:41.394Z,82.07
2019-03-24T09:53:12.533Z,82.23
2019-03-24T09:55:43.874Z,81.63
2019-03-24T09:58:15.577Z,82.73
2019-03-24T10:00:46.601Z,81.82
2019-03-24T10:03:17.609Z,83.20
2019-03-24T10:05:48.686Z,82.79
2019-03-24T10:08:20.093Z,83.35
2019-03-24T10:10:51.083Z,83.33
2019-03-24T10:13:22.056Z,82.32
2019-03-24T10:15:53.910Z,81.48
2019-03-24T10:18:27.179Z,80.64
2019-03-24T10:20:59.413Z,80.57
2019-03-24T10:23:30.725Z,80.26
2019-03-24T10:26:02.024Z,79.06
2019-03-24T10:28:34.446Z,78.72
2019-03-24T10:31:05.543Z,78.50
2019-03-24T10:33:38.574Z,76.93
2019-03-24T10:36:10.266Z,77.42
2019-03-24T10:38:42.902Z,75.99
2019-03-24T10:41:14.413Z,75.13
2019-03-24T10:43:45.401Z,72.98
2019-03-24T10:46:17.120Z,72.57
2019-03-24T10:48:48.587Z,72.72
2019-03-24T10:51:20.307Z,71.98
2019-03-24T10:53:51.656Z,70.17
2019-03-24T10:56:23.014Z,70.67
2019-03-24T10:58:54.486Z,69.71
2019-03-24T11:01:25.627Z,70.24
2019-03-24T11:03:57.136Z,68.31
2019-03-24T11:06:28.416Z,68.41
2019-03-24T11:08:59.862Z,67.31
2019-03-24T11:11:30.934Z,66.37
2019-03-24T11:14:02.033Z,66.75
2019-03-24T11:16:34.039Z,66.95
2019-03-24T11:19:05.134Z,66.74
2019-03-24T11:21:36.148Z,67.23
2019-03-24T11:24:07.312Z,67.38
2019-03-24T11:26:38.344Z,67.17
2019-03-24T11:29:09.397Z,64.33
2019-03-24T11:31:41.199Z,65.09
2019-03-24T11:34:12.186Z,63.02
2019-03-24T11:36:43.163Z,62.82
2019-03-24T11:39:14.571Z,62.32
2019-03-24T11:41:46.037Z,61.34
2019-03-24T11:44:17.135Z,60.93
2019-03-24T11:46:48.284Z,60.32
2019-03-24T11:49:20.817Z,60.57
2019-03-24T11:51:52.212Z,62.03
2019-03-24T11:54:25.886Z,60.14
2019-03-24T11:56:56.866Z,60.24
2019-03-24T11:59:27.858Z,58.31
2019-03-24T12:01:59.258Z,59.09
2019-03-24T12:04:30.599Z,58.53
2019-03-24T12:07:01.594Z,57.94
2019-03-24T12:09:32.941Z,59.77
2019-03-24T12:12:03.927Z,58.87
2019-03-24T12:14:34.916Z,58.94
2019-03-24T12:17:06.496Z,58.42
2019-03-24T12:19:37.488Z,59.58
2019-03-24T12:22:08.484Z,60.53
2019-03-24T12:24:39.516Z,60.83
2019-03-24T12:27:10.921Z,60.44
2019-03-24T12:29:41.919Z,60.09
2019-03-24T12:32:15.470Z,60.65
2019-03-24T12:34:46.097Z,61.85
2019-03-24T12:37:17.091Z,60.37
2019-03-24T12:39:48.492Z,61.50
2019-03-24T12:42:19.838Z,62.59
2019-03-24T12:44:50.872Z,63.58
2019-03-24T12:47:22.355Z,63.55
2019-03-24T12:49:53.995Z,63.05
2019-03-24T12:52:25.064Z,62.68
2019-03-24T12:54:56.062Z,62.30
2019-03-24T12:57:27.447Z,62.49
2019-03-24T12:59:59.171Z,60.11
2019-03-24T13:02:30.850Z,61.11
2019-03-24T13:05:01.870Z,61.58
2019-03-24T13:07:33.678Z,61.46
2019-03-24T13:10:04.959Z,59.50
2019-03-24T13:12:36.251Z,58.04
2019-03-24T13:15:07.659Z,57.45
2019-03-24T13:17:38.960Z,55.63
2019-03-24T13:20:19.942Z,54.28
2019-03-24T13:22:43.089Z,54.63
2019-03-24T13:25:14.095Z,54.04
2019-03-24T13:27:45.347Z,54.79
2019-03-24T13:30:17.447Z,55.47
2019-03-24T13:32:48.451Z,55.92
2019-03-24T13:35:19.842Z,56.78
2019-03-24T13:37:51.801Z,56.82
2019-03-24T13:40:22.788Z,55.94
2019-03-24T13:42:53.767Z,55.22
2019-03-24T13:45:24.798Z,55.30
2019-03-24T13:47:55.790Z,55.58
2019-03-24T13:50:31.661Z,54.62
2019-03-24T13:52:59.888Z,55.56
2019-03-24T13:55:31.365Z,57.23
2019-03-24T13:58:03.047Z,56.87
2019-03-24T14:00:34.113Z,53.98
2019-03-24T14:03:05.418Z,53.10
2019-03-24T14:05:36.396Z,51.65
2019-03-24T14:08:07.478Z,48.95
2019-03-24T14:10:39.198Z,48.60
2019-03-24T14:13:10.478Z,49.40
2019-03-24T14:15:41.523Z,48.61
2019-03-24T14:18:12.514Z,48.16
2019-03-24T14:20:44.161Z,50.06
2019-03-24T14:23:15.938Z,49.72
2019-03-24T14:25:46.921Z,49.95
2019-03-24T14:28:18.310Z,47.99
2019-03-24T14:30:50.291Z,47.62
2019-03-24T14:33:21.629Z,46.59
2019-03-24T14:35:52.979Z,47.74
2019-03-24T14:38:24.022Z,48.31
2019-03-24T14:40:55.014Z,49.90
2019-03-24T14:43:26.314Z,51.71
2019-03-24T14:45:58.416Z,51.90
2019-03-24T14:48:29.407Z,51.86
2019-03-24T14:51:00.404Z,53.56
2019-03-24T14:53:31.721Z,53.61
2019-03-24T14:56:02.721Z,53.30
2019-03-24T14:58:33.751Z,53.05
2019-03-24T15:01:05.269Z,53.14
2019-03-24T15:03:36.260Z,53.06
2019-03-24T15:06:07.359Z,53.09
2019-03-24T15:08:38.404Z,53.87
2019-03-24T15:11:09.737Z,53.20
2019-03-24T15:13:40.718Z,54.19
2019-03-24T15:16:12.137Z,53.21
2019-03-24T15:18:43.126Z,53.33
2019-03-24T15:21:14.734Z,51.25
2019-03-24T15:23:46.887Z,50.42
2019-03-24T15:26:17.862Z,52.06
2019-03-24T15:28:49.297Z,53.26
2019-03-24T15:31:20.342Z,52.29
2019-03-24T15:33:51.718Z,51.09
2019-03-24T15:36:22.699Z,51.71
2019-03-24T15:38:53.730Z,50.87
2019-03-24T15:41:24.735Z,51.68
2019-03-24T15:43:56.225Z,51.15
2019-03-24T15:46:27.624Z,51.60
2019-03-24T15:48:58.609Z,50.36
2019-03-24T15:51:29.584Z,49.70
2019-03-24T15:54:02.382Z,50.83
2019-03-24T15:56:33.354Z,50.86
2019-03-24T15:59:04.701Z,47.41
2019-03-24T16:01:35.733Z,48.69
2019-03-24T16:04:06.729Z,47.40
2019-03-24T16:06:39.969Z,45.07
2019-03-24T16:09:11.045Z,42.90
2019-03-24T16:11:42.020Z,42.43
2019-03-24T16:14:13.178Z,43.93
2019-03-24T16:16:44.901Z,44.57
2019-03-24T16:19:15.870Z,48.59
2019-03-24T16:21:46.841Z,50.18
2019-03-24T16:24:17.887Z,49.11
2019-03-24T16:26:48.892Z,49.22
2019-03-24T16:29:20.268Z,49.91
2019-03-24T16:31:51.634Z,52.35
2019-03-24T16:34:23.018Z,51.39
2019-03-24T16:36:54.002Z,51.32
2019-03-24T16:39:25.031Z,51.03
2019-03-24T16:41:56.004Z,49.97
2019-03-24T16:44:27.778Z,45.41
2019-03-24T16:46:59.119Z,46.19
2019-03-24T16:49:30.471Z,46.22
2019-03-24T16:52:01.455Z,43.40
2019-03-24T16:54:32.473Z,44.41
2019-03-24T16:57:03.469Z,45.49
2019-03-24T16:59:34.426Z,46.87
2019-03-24T17:02:05.459Z,44.96
2019-03-24T17:04:37.800Z,45.81
2019-03-24T17:07:08.813Z,46.88
2019-03-24T17:09:40.269Z,46.72
2019-03-24T17:12:12.219Z,46.14
2019-03-24T17:14:43.213Z,48.03
2019-03-24T17:17:14.556Z,48.76
2019-03-24T17:19:45.860Z,50.14
2019-03-24T17:22:17.520Z,49.82
2019-03-24T17:24:48.824Z,49.41
2019-03-24T17:27:19.792Z,50.74
2019-03-24T17:29:50.785Z,51.67
2019-03-24T17:32:21.834Z,52.13
2019-03-24T17:34:57.587Z,51.38
2019-03-24T17:37:30.035Z,52.72
2019-03-24T17:40:01.778Z,51.26
2019-03-24T17:42:32.776Z,53.09
2019-03-24T17:45:04.576Z,52.83
2019-03-24T17:47:35.903Z,52.35
2019-03-24T17:50:09.171Z,54.31
2019-03-24T17:52:40.559Z,53.27
2019-03-24T17:55:13.274Z,53.26
2019-03-24T17:57:45.032Z,52.88
2019-03-24T18:00:18.275Z,53.32
2019-03-24T18:02:49.266Z,53.26
2019-03-24T18:05:20.811Z,55.76
2019-03-24T18:07:52.172Z,55.82
2019-03-24T18:10:23.531Z,54.00
2019-03-24T18:12:55.180Z,53.91
2019-03-24T18:15:29.244Z,53.76
2019-03-24T18:18:00.657Z,55.16
2019-03-24T18:20:33.223Z,53.73
2019-03-24T18:23:05.804Z,54.65
2019-03-24T18:25:38.169Z,54.47
2019-03-24T18:28:09.332Z,53.46
2019-03-24T18:30:40.612Z,53.78
2019-03-24T18:33:11.943Z,54.14
2019-03-24T18:35:43.784Z,54.11
2019-03-24T18:38:15.188Z,54.42
2019-03-24T18:40:48.722Z,54.42
2019-03-24T18:43:19.679Z,54.59
2019-03-24T18:45:52.300Z,54.83
2019-03-24T18:48:23.304Z,54.98
2019-03-24T18:50:55.011Z,55.15
2019-03-24T18:53:26.360Z,55.90
2019-03-24T18:55:58.175Z,55.88
2019-03-24T18:58:29.160Z,55.59
2019-03-24T19:01:00.464Z,55.90
2019-03-24T19:03:31.432Z,55.98
2019-03-24T19:06:04.699Z,56.59
2019-03-24T19:08:38.404Z,56.53
2019-03-24T19:11:10.884Z,56.86
2019-03-24T19:13:45.304Z,57.54
2019-03-24T19:16:21.841Z,57.71
2019-03-24T19:18:54.135Z,58.44
2019-03-24T19:21:25.144Z,58.60
2019-03-24T19:23:56.148Z,58.85
2019-03-24T19:26:27.105Z,59.00
2019-03-24T19:28:58.117Z,59.19
2019-03-24T19:31:29.568Z,59.24
2019-03-24T19:34:00.536Z,59.58
2019-03-24T19:36:34.640Z,59.84
2019-03-24T19:39:10.213Z,59.77
2019-03-24T19:41:41.726Z,60.08
2019-03-24T19:44:12.726Z,60.68
2019-03-24T19:46:44.176Z,60.91
2019-03-24T19:49:21.588Z,60.75
2019-03-24T19:51:54.912Z,60.68
2019-03-24T19:54:25.928Z,60.61
2019-03-24T19:56:56.909Z,60.72
2019-03-24T19:59:31.033Z,60.76
2019-03-24T20:02:04.462Z,60.90
2019-03-24T20:04:37.290Z,61.12
2019-03-24T20:07:10.685Z,61.19
2019-03-24T20:09:42.480Z,61.51
2019-03-24T20:12:15.860Z,62.15
2019-03-24T20:14:46.475Z,62.29
2019-03-24T20:17:17.883Z,62.26
2019-03-24T20:19:49.283Z,62.35
2019-03-24T20:22:20.619Z,62.52
2019-03-24T20:24:51.653Z,62.03
2019-03-24T20:27:25.799Z,61.95
2019-03-24T20:29:58.000Z,61.46
2019-03-24T20:32:29.493Z,61.37
2019-03-24T20:35:00.493Z,61.54
2019-03-24T20:37:35.042Z,60.97
2019-03-24T20:40:06.782Z,61.26
2019-03-24T20:42:38.124Z,62.02
2019-03-24T20:45:09.980Z,61.24
2019-03-24T20:47:42.072Z,61.11
2019-03-24T20:50:14.111Z,63.03
2019-03-24T20:52:45.146Z,62.36
2019-03-24T20:55:16.481Z,61.61
2019-03-24T20:57:48.351Z,61.89
2019-03-24T21:00:30.146Z,62.08
2019-03-24T21:03:02.183Z,62.37
2019-03-24T21:05:33.764Z,61.89
2019-03-24T21:08:05.307Z,62.74
2019-03-24T21:10:36.817Z,62.01
2019-03-24T21:13:08.532Z,62.68
2019-03-24T21:15:40.232Z,62.61
2019-03-24T21:18:12.197Z,62.59
2019-03-24T21:20:43.536Z,62.09
2019-03-24T21:23:14.577Z,62.77
2019-03-24T21:25:46.397Z,63.06
2019-03-24T21:28:18.062Z,62.89
2019-03-24T21:30:50.029Z,62.98
2019-03-24T21:33:21.298Z,63.55
2019-03-24T21:35:52.279Z,63.56
2019-03-24T21:38:23.703Z,64.16
2019-03-24T21:40:55.082Z,63.72
2019-03-24T21:43:26.880Z,64.08
2019-03-24T21:45:58.863Z,64.06
2019-03-24T21:48:32.455Z,64.90
2019-03-24T21:51:03.927Z,65.43
2019-03-24T21:53:40.637Z,65.75
2019-03-24T21:56:07.916Z,65.54
2019-03-24T21:58:38.909Z,66.05
2019-03-24T22:01:10.211Z,65.98
2019-03-24T22:03:41.590Z,66.32
2019-03-24T22:06:12.555Z,66.29
2019-03-24T22:08:45.300Z,66.80
2019-03-24T22:11:16.751Z,66.91
2019-03-24T22:13:47.731Z,66.76
2019-03-24T22:16:19.092Z,67.31
2019-03-24T22:18:50.516Z,67.99
2019-03-24T22:21:21.488Z,68.54
2019-03-24T22:23:53.694Z,69.04
2019-03-24T22:26:24.663Z,69.27
2019-03-24T22:28:56.004Z,69.75
2019-03-24T22:31:27.356Z,70.18
2019-03-24T22:33:58.722Z,70.47
2019-03-24T22:36:31.117Z,70.09
2019-03-24T22:39:02.437Z,70.14
2019-03-24T22:41:33.782Z,70.76
2019-03-24T22:44:04.881Z,70.45
2019-03-24T22:46:35.908Z,70.30
2019-03-24T22:49:06.874Z,70.46
2019-03-24T22:51:37.839Z,70.64
2019-03-24T22:54:09.297Z,70.90
2019-03-24T22:56:40.345Z,70.84
2019-03-24T22:59:12.113Z,71.06
2019-03-24T23:01:43.534Z,71.61
2019-03-24T23:04:14.515Z,71.71
2019-03-24T23:06:45.484Z,71.74
2019-03-24T23:09:16.516Z,72.31
2019-03-24T23:11:47.489Z,72.73
2019-03-24T23:14:18.490Z,73.14
2019-03-24T23:16:50.236Z,73.89
2019-03-24T23:19:21.209Z,74.36
2019-03-24T23:21:52.551Z,74.65
2019-03-24T23:24:23.594Z,75.80
2019-03-24T23:26:54.568Z,75.70
2019-03-24T23:29:25.866Z,76.41
2019-03-24T23:31:56.882Z,76.66
2019-03-24T23:34:28.151Z,77.05
2019-03-24T23:36:59.113Z,77.13
2019-03-24T23:39:30.146Z,77.97
2019-03-24T23:42:01.991Z,77.55
2019-03-24T23:44:33.665Z,77.78
2019-03-24T23:47:04.743Z,77.84
2019-03-24T23:49:35.741Z,77.61
2019-03-24T23:52:07.105Z,77.69
2019-03-24T23:54:38.134Z,77.52
2019-03-24T23:57:09.109Z,77.82
2019-03-24T23:59:40.067Z,77.70
